• Join FlightAware (Why Join?)
  • Login
  • US Flag 
06:50PM EDT


 

Airport Tracker/Info


-or-


 

Live Flight TrackerFlight Track Log ✈ AWE2690 ✈ 07-Nov-2013 ✈ KCLT - KSYR

Flight Track Log - Related Links

Times and Time Zones

All times are in EST time to prevent confusion due to time zone crossing. See the AWE2690 flight status page for this flight to view local times or setup timezone preferences in your user account.

Time Position Orientation Groundspeed Altitude Reporting Facility
EST Latitude Longitude Course Direction KTS MPH feet Rate Location/Type
01:21PM 35.2353 -80.9594 North 162 186 1,600  Level Atlanta Center
01:22PM 35.2800 -80.9983 325° Northwest 208 239 3,300 2,040 Climbing Atlanta Center
01:24PM 35.3431 -81.0167 347° North 272 313 5,800 2,340 Climbing Atlanta Center
01:25PM 35.6671 -80.7013 North  Level Estimated
01:25PM 35.4131 -80.9758 25° Northeast 300 345 8,200  Level Atlanta Center
01:26PM 35.7803 -80.6390 North  Level Estimated
01:26PM 35.5219 -80.9078 27° Northeast 335 386 10,600  Level Atlanta Center
01:27PM 35.8936 -80.5764 North  Level Estimated
01:27PM 35.6111 -80.8942 North 340 391 12,200  Level Atlanta Center
01:28PM 35.7300 -80.8844 North 363 418 14,500 2,100 Climbing Atlanta Center
01:29PM 35.8400 -80.8700 North 378 435 16,500 1,680 Climbing Atlanta Center
01:30PM 35.9522 -80.8553 North 391 450 17,900 1,500 Climbing Atlanta Center
01:31PM 36.0686 -80.8353 North 407 468 19,500 1,500 Climbing Atlanta Center
01:32PM 36.1894 -80.8256 North 422 486 20,900 1,320 Climbing Atlanta Center
01:33PM 36.3161 -80.8100 North 437 503 22,200 1,380 Climbing Atlanta Center
01:34PM 36.4386 -80.7922 North 443 510 23,700 1,440 Climbing Atlanta Center
01:35PM 36.5553 -80.7797 North 453 521 25,100 1,080 Climbing Atlanta Center
01:36PM 36.6842 -80.7642 North 459 528 25,900 1,080 Climbing Atlanta Center
01:38PM 36.9258 -80.7364 North 486 559 28,100 1,320 Climbing Washington Center
01:39PM 37.0581 -80.7192 North 481 554 29,600 1,140 Climbing Washington Center
01:40PM 37.1806 -80.6856 12° North 489 563 30,500 1,020 Climbing Washington Center
01:41PM 37.3117 -80.6422 15° North 489 563 31,700 960 Climbing Washington Center
01:42PM 37.4431 -80.5986 15° North 494 568 32,500 900 Climbing Washington Center
01:43PM 37.5761 -80.5550 15° North 494 568 33,600 840 Climbing Washington Center
01:44PM 37.7094 -80.5086 15° North 494 568 34,200 660 Climbing Washington Center
01:45PM 37.8597 -80.4578 15° North 494 568 35,000 360 Climbing Washington Center
01:46PM 37.9992 -80.4117 15° North 505 581 35,000  Level Washington Center
01:47PM 38.1431 -80.3600 16° North 517 595 35,000  Level Washington Center
01:48PM 38.2931 -80.3114 14° North 534 615 35,000  Level Washington Center
01:49PM 38.4433 -80.2600 15° North 540 621 35,000  Level Washington Center
01:50PM 38.5786 -80.2128 15° North 545 627 35,000  Level Washington Center
01:51PM 38.7244 -80.1581 16° North 551 634 35,000  Level Washington Center
01:53PM 39.0664 -79.9944 20° North 548 631 35,000  Level Cleveland Center
01:54PM 39.2050 -79.9053 26° Northeast 556 640 35,000  Level Cleveland Center
01:55PM 39.3717 -79.8000 26° Northeast 557 641 35,000  Level Cleveland Center
01:56PM 39.5086 -79.7125 26° Northeast 554 638 35,000  Level Cleveland Center
01:57PM 39.6453 -79.6256 26° Northeast 551 634 35,000  Level Cleveland Center
01:58PM 39.7819 -79.5389 26° Northeast 552 635 35,000  Level Cleveland Center
01:59PM 39.9181 -79.4528 26° Northeast 550 633 35,000  Level Cleveland Center
02:00PM 40.0842 -79.3442 27° Northeast 559 643 35,000  Level Cleveland Center
02:01PM 40.2272 -79.2506 27° Northeast 565 650 35,000  Level Cleveland Center
02:02PM 40.3661 -79.1597 26° Northeast 563 648 35,000  Level Cleveland Center
02:03PM 40.5056 -79.0681 27° Northeast 565 650 35,000  Level Cleveland Center
02:04PM 40.6425 -78.9781 26° Northeast 568 654 35,000 -540 Level Cleveland Center
02:05PM 40.8150 -78.8639 27° Northeast 568 654 34,000 -540 Descending Cleveland Center
02:06PM 40.9511 -78.7731 27° Northeast 569 655 34,000  Level Cleveland Center
02:07PM 41.0917 -78.6786 27° Northeast 568 654 34,000  Level Cleveland Center
02:08PM 41.2314 -78.5853 27° Northeast 567 652 34,000  Level Cleveland Center
02:10PM 41.3842 -78.4789 28° Northeast 564 649 34,000  Level Cleveland Center
02:11PM 41.5244 -78.3867 26° Northeast 563 648 34,000 -420 Level Cleveland Center
02:12PM 41.6625 -78.2911 27° Northeast 561 646 33,200 -1,020 Descending Cleveland Center
02:13PM 41.8075 -78.1911 27° Northeast 581 669 32,000 -1,320 Descending Cleveland Center
02:14PM 41.9794 -78.0739 27° Northeast 577 664 30,500 -1,320 Descending Cleveland Center
02:15PM 42.1114 -77.9636 32° Northeast 566 651 29,300 -1,140 Descending Cleveland Center
02:16PM 42.2139 -77.8011 50° Northeast 568 654 28,200 -960 Descending Cleveland Center
02:17PM 42.3133 -77.6356 51° Northeast 571 657 27,400 -1,080 Descending Cleveland Center
02:18PM 42.4344 -77.4358 51° Northeast 581 669 26,000 -1,500 Descending Cleveland Center
02:19PM 42.5269 -77.2825 51° Northeast 539 620 24,300 -2,760 Descending Cleveland Center
02:20PM 42.6108 -77.1408 51° Northeast 493 567 20,300 -4,380 Descending Cleveland Center
02:21PM 42.6906 -77.0067 51° Northeast 466 536 15,300 -4,320 Descending Cleveland Center
02:22PM 42.7661 -76.8831 50° Northeast 434 499 11,900 -2,280 Descending Boston Center
02:23PM 42.8350 -76.7656 51° Northeast 404 465 11,000 -780 Descending Boston Center
02:24PM 42.9094 -76.6381 51° Northeast 374 430 10,200 -1,260 Descending Cleveland Center
02:25PM 42.9617 -76.5486 51° Northeast 317 365 8,300 -1,680 Descending Cleveland Center
02:26PM 42.9717 -76.4608 81° East 299 344 7,100 -1,380 Descending Boston Center
02:27PM 42.9758 -76.3539 87° East 287 330 5,800 -1,440 Descending Boston Center
02:27PM 42.9769 -76.3339 86° East 285 328 5,600 -1,440 Descending Boston Center
02:28PM 42.9786 -76.2456 88° East 287 330 4,400 -1,440 Descending Boston Center
02:28PM 42.9783 -76.2267 91° East 286 329 4,200 -1,020 Descending Boston Center
02:29PM 42.9847 -76.1267 85° East 257 296 3,400 -360 Descending Boston Center
02:30PM 43.0081 -76.0378 70° East 227 261 3,500  Climbing Boston Center
02:31PM 43.0264 -75.9678 70° East 227 261 3,500  Level Boston Center
02:31PM 43.0286 -75.9592 71° East 237 273 3,500 -720 Level Boston Center
02:32PM 43.0675 -75.9019 47° Northeast 207 238 2,800 -780 Descending Boston Center
02:32PM 43.0703 -75.9000 27° Northeast 227 261 2,700 -300 Descending Boston Center
02:33PM 43.1089 -75.9089 350° North 158 182 2,500 -240 Descending Boston Center
02:33PM 43.1103 -75.9100 330° Northwest 204 235 2,500 -540 Level Boston Center
02:34PM 43.1122 -75.9656 273° West 149 171 2,000 -540 Descending Boston Center
02:34PM 43.1139 -75.9683 309° West 173 199 2,000 -420 Level Boston Center
02:35PM 43.1117 -76.0208 267° West 147 169 1,600 -540 Descending Boston Center
02:35PM 43.1122 -76.0225 295° West 157 181 1,500 -720 Descending Boston Center
02:36PM 43.1103 -76.0669 267° West 121 139 900 -720 Descending Boston Center
02:36PM 43.1108 -76.0689 291° West 138 159 800 -480 Descending Boston Center
02:37PM 43.1092 -76.1117 267° West 114 131 400 -420 Descending Boston Center